CCDAZ SCQP-SCEL
Flight info
| Callsign | CCDAZ |
|---|---|
| Flight time | 1h 6m |
| Altitude | 43000 |
| Route | KETI3C KETIR UQ802 EROLO EROL2D |
| Aircraft | C25C/M-SDE2E3FGHRWXY/LB1 |
Departure
| Time | 2026-05-05 20:30 |
|---|---|
| Airport | La Araucanía International Airport (SCQP) |
Arrival
| Time | 2026-05-05 21:37 |
|---|---|
| Airport | Comodoro Arturo Merino Benítez International Airport (SCEL) |
| Time | Latitude | Longitude | Altitude | Speed | Heading |
|---|---|---|---|---|---|
| 2026-05-05 20:08 | -38.92614 | -72.64735 | 317 ft | 0 kts | 197° |
| 2026-05-05 20:25 | -38.92618 | -72.64772 | 317 ft | 9 kts | 291° |
| 2026-05-05 20:25 | -38.92615 | -72.64855 | 317 ft | 11 kts | 222° |
| 2026-05-05 20:25 | -38.92694 | -72.64894 | 319 ft | 13 kts | 199° |
| 2026-05-05 20:26 | -38.92787 | -72.64932 | 318 ft | 15 kts | 197° |
| 2026-05-05 20:26 | -38.92880 | -72.64989 | 317 ft | 14 kts | 242° |
| 2026-05-05 20:26 | -38.92866 | -72.65099 | 318 ft | 12 kts | 284° |
| 2026-05-05 20:26 | -38.92849 | -72.65206 | 322 ft | 12 kts | 261° |
| 2026-05-05 20:27 | -38.92916 | -72.65298 | 320 ft | 19 kts | 197° |
| 2026-05-05 20:27 | -38.93073 | -72.65356 | 320 ft | 27 kts | 197° |
| 2026-05-05 20:27 | -38.93256 | -72.65429 | 320 ft | 28 kts | 197° |
| 2026-05-05 20:27 | -38.93435 | -72.65501 | 318 ft | 26 kts | 197° |
| 2026-05-05 20:28 | -38.93596 | -72.65527 | 322 ft | 13 kts | 175° |
| 2026-05-05 20:28 | -38.93623 | -72.65567 | 322 ft | 5 kts | 322° |
| 2026-05-05 20:28 | -38.93604 | -72.65567 | 322 ft | 0 kts | 20° |
| 2026-05-05 20:30 | -38.93474 | -72.65515 | 321 ft | 55 kts | 17° |
| 2026-05-05 20:30 | -38.92776 | -72.65237 | 526 ft | 134 kts | 18° |
| 2026-05-05 20:30 | -38.91830 | -72.64864 | 1545 ft | 149 kts | 14° |
| 2026-05-05 20:31 | -38.90793 | -72.64454 | 2493 ft | 167 kts | 11° |
| 2026-05-05 20:31 | -38.89594 | -72.63989 | 3448 ft | 191 kts | 11° |
| 2026-05-05 20:31 | -38.88256 | -72.63467 | 4416 ft | 214 kts | 10° |
| 2026-05-05 20:31 | -38.86760 | -72.62874 | 5393 ft | 235 kts | 10° |
| 2026-05-05 20:32 | -38.85158 | -72.62238 | 6531 ft | 243 kts | 10° |
| 2026-05-05 20:32 | -38.83472 | -72.61766 | 7644 ft | 250 kts | 4° |
| 2026-05-05 20:32 | -38.81736 | -72.61291 | 8791 ft | 257 kts | 5° |
| 2026-05-05 20:32 | -38.79970 | -72.60806 | 9763 ft | 271 kts | 5° |
| 2026-05-05 20:33 | -38.78044 | -72.60278 | 10217 ft | 298 kts | 6° |
| 2026-05-05 20:33 | -38.75926 | -72.59697 | 10736 ft | 316 kts | 6° |
| 2026-05-05 20:33 | -38.73764 | -72.59085 | 11694 ft | 318 kts | 5° |
| 2026-05-05 20:33 | -38.71589 | -72.58488 | 12539 ft | 326 kts | 5° |
| 2026-05-05 20:34 | -38.69346 | -72.57873 | 13574 ft | 328 kts | 5° |
| 2026-05-05 20:34 | -38.67111 | -72.57264 | 14420 ft | 331 kts | 5° |
| 2026-05-05 20:34 | -38.64854 | -72.56640 | 15198 ft | 335 kts | 5° |
| 2026-05-05 20:34 | -38.62569 | -72.56015 | 15907 ft | 340 kts | 5° |
| 2026-05-05 20:35 | -38.60254 | -72.55376 | 16670 ft | 343 kts | 5° |
| 2026-05-05 20:35 | -38.57887 | -72.54732 | 17414 ft | 347 kts | 5° |
| 2026-05-05 20:35 | -38.55520 | -72.54083 | 18135 ft | 352 kts | 5° |
| 2026-05-05 20:35 | -38.53097 | -72.53419 | 18774 ft | 356 kts | 5° |
| 2026-05-05 20:36 | -38.50689 | -72.52760 | 19433 ft | 359 kts | 4° |
| 2026-05-05 20:36 | -38.48213 | -72.52083 | 20109 ft | 363 kts | 5° |
| 2026-05-05 20:36 | -38.45747 | -72.51412 | 20779 ft | 366 kts | 5° |
| 2026-05-05 20:36 | -38.43251 | -72.50729 | 21436 ft | 370 kts | 4° |
| 2026-05-05 20:37 | -38.40704 | -72.50035 | 22092 ft | 375 kts | 5° |
| 2026-05-05 20:37 | -38.39001 | -72.49571 | 22496 ft | 378 kts | 4° |
| 2026-05-05 20:37 | -38.35542 | -72.48628 | 23299 ft | 383 kts | 5° |
| 2026-05-05 20:37 | -38.32934 | -72.47921 | 23814 ft | 387 kts | 4° |
| 2026-05-05 20:38 | -38.30281 | -72.47196 | 24357 ft | 389 kts | 4° |
| 2026-05-05 20:38 | -38.27634 | -72.46478 | 24899 ft | 392 kts | 4° |
| 2026-05-05 20:38 | -38.24935 | -72.45746 | 25421 ft | 395 kts | 4° |
| 2026-05-05 20:38 | -38.22256 | -72.45000 | 25848 ft | 398 kts | 5° |
| 2026-05-05 20:39 | -38.19527 | -72.44224 | 26250 ft | 401 kts | 5° |
| 2026-05-05 20:39 | -38.16811 | -72.43454 | 26631 ft | 403 kts | 5° |
| 2026-05-05 20:39 | -38.14079 | -72.42697 | 26984 ft | 405 kts | 5° |
| 2026-05-05 20:39 | -38.11308 | -72.41921 | 27317 ft | 407 kts | 5° |
| 2026-05-05 20:40 | -38.08540 | -72.41147 | 27628 ft | 410 kts | 5° |
| 2026-05-05 20:40 | -38.05741 | -72.40363 | 28163 ft | 406 kts | 5° |
| 2026-05-05 20:40 | -38.03003 | -72.39593 | 28755 ft | 403 kts | 5° |
| 2026-05-05 20:40 | -38.00255 | -72.38831 | 29258 ft | 402 kts | 5° |
| 2026-05-05 20:41 | -37.97541 | -72.38076 | 29752 ft | 401 kts | 5° |
| 2026-05-05 20:41 | -37.94822 | -72.37319 | 30223 ft | 400 kts | 5° |
| 2026-05-05 20:41 | -37.92124 | -72.36565 | 30707 ft | 397 kts | 4° |
| 2026-05-05 20:41 | -37.89418 | -72.35811 | 31165 ft | 395 kts | 4° |
| 2026-05-05 20:42 | -37.86751 | -72.35072 | 31598 ft | 393 kts | 4° |
| 2026-05-05 20:42 | -37.84074 | -72.34329 | 32014 ft | 391 kts | 4° |
| 2026-05-05 20:42 | -37.81429 | -72.33594 | 32375 ft | 392 kts | 4° |
| 2026-05-05 20:42 | -37.78731 | -72.32851 | 32642 ft | 395 kts | 4° |
| 2026-05-05 20:43 | -37.76053 | -72.32105 | 33068 ft | 394 kts | 4° |
| 2026-05-05 20:43 | -37.73393 | -72.31365 | 33481 ft | 393 kts | 4° |
| 2026-05-05 20:43 | -37.70725 | -72.30629 | 33877 ft | 391 kts | 3° |
| 2026-05-05 20:43 | -37.68080 | -72.29898 | 34137 ft | 390 kts | 3° |
| 2026-05-05 20:44 | -37.65440 | -72.29170 | 34375 ft | 390 kts | 2° |
| 2026-05-05 20:44 | -37.62776 | -72.28387 | 34617 ft | 392 kts | 4° |
| 2026-05-05 20:44 | -37.60139 | -72.27569 | 34853 ft | 391 kts | 4° |
| 2026-05-05 20:44 | -37.57480 | -72.26756 | 35093 ft | 391 kts | 3° |
| 2026-05-05 20:45 | -37.52199 | -72.25150 | 35575 ft | 390 kts | 2° |
| 2026-05-05 20:45 | -37.49584 | -72.24350 | 35825 ft | 390 kts | 2° |
| 2026-05-05 20:45 | -37.46934 | -72.23540 | 36064 ft | 390 kts | 2° |
| 2026-05-05 20:46 | -37.44310 | -72.22744 | 36311 ft | 390 kts | 1° |
| 2026-05-05 20:46 | -37.41656 | -72.21935 | 36569 ft | 389 kts | 1° |
| 2026-05-05 20:46 | -37.39042 | -72.21139 | 36821 ft | 389 kts | 1° |
| 2026-05-05 20:46 | -37.36418 | -72.20343 | 37074 ft | 389 kts | 1° |
| 2026-05-05 20:47 | -37.33808 | -72.19550 | 37335 ft | 388 kts | 1° |
| 2026-05-05 20:47 | -37.31153 | -72.18745 | 37600 ft | 388 kts | 0° |
| 2026-05-05 20:47 | -37.28556 | -72.17957 | 37859 ft | 388 kts | 0° |
| 2026-05-05 20:47 | -37.25941 | -72.17164 | 38129 ft | 387 kts | 360° |
| 2026-05-05 20:48 | -37.23306 | -72.16366 | 38410 ft | 387 kts | 360° |
| 2026-05-05 20:48 | -37.20693 | -72.15575 | 38657 ft | 386 kts | 359° |
| 2026-05-05 20:48 | -37.18085 | -72.14788 | 38860 ft | 387 kts | 360° |
| 2026-05-05 20:48 | -37.15451 | -72.13992 | 39061 ft | 387 kts | 360° |
| 2026-05-05 20:49 | -37.12839 | -72.13202 | 39268 ft | 387 kts | 360° |
| 2026-05-05 20:49 | -37.10224 | -72.12414 | 39472 ft | 387 kts | 0° |
| 2026-05-05 20:49 | -37.07590 | -72.11620 | 39681 ft | 388 kts | 0° |
| 2026-05-05 20:49 | -37.04982 | -72.10834 | 39887 ft | 388 kts | 0° |
| 2026-05-05 20:50 | -37.02354 | -72.10044 | 40099 ft | 389 kts | 0° |
| 2026-05-05 20:50 | -37.00599 | -72.09514 | 40235 ft | 389 kts | 0° |
| 2026-05-05 20:50 | -36.97084 | -72.08457 | 40516 ft | 389 kts | 0° |
| 2026-05-05 20:50 | -36.94456 | -72.07668 | 40719 ft | 390 kts | 1° |
| 2026-05-05 20:51 | -36.91827 | -72.06880 | 40917 ft | 390 kts | 1° |
| 2026-05-05 20:51 | -36.89164 | -72.06079 | 41122 ft | 391 kts | 1° |
| 2026-05-05 20:51 | -36.86541 | -72.05294 | 41320 ft | 391 kts | 1° |
| 2026-05-05 20:51 | -36.84764 | -72.04761 | 41449 ft | 392 kts | 1° |
| 2026-05-05 20:52 | -36.81236 | -72.03704 | 41708 ft | 392 kts | 1° |
| 2026-05-05 20:52 | -36.79463 | -72.03175 | 41841 ft | 393 kts | 1° |
| 2026-05-05 20:52 | -36.76790 | -72.02375 | 42031 ft | 393 kts | 1° |
| 2026-05-05 20:52 | -36.74143 | -72.01584 | 42224 ft | 394 kts | 1° |
| 2026-05-05 20:53 | -36.71488 | -72.00790 | 42420 ft | 394 kts | 1° |
| 2026-05-05 20:53 | -36.68804 | -71.99990 | 42615 ft | 394 kts | 1° |
| 2026-05-05 20:53 | -36.66144 | -71.99197 | 42810 ft | 394 kts | 1° |
| 2026-05-05 20:53 | -36.63475 | -71.98403 | 42870 ft | 398 kts | 2° |
| 2026-05-05 20:54 | -36.58018 | -71.96782 | 42921 ft | 406 kts | 2° |
| 2026-05-05 20:54 | -36.52555 | -71.95150 | 42926 ft | 402 kts | 2° |
| 2026-05-05 20:55 | -36.47129 | -71.93543 | 42923 ft | 400 kts | 2° |
| 2026-05-05 20:55 | -36.41734 | -71.91943 | 42929 ft | 398 kts | 1° |
| 2026-05-05 20:56 | -36.36352 | -71.90352 | 42924 ft | 397 kts | 1° |
| 2026-05-05 20:56 | -36.30984 | -71.88764 | 42924 ft | 396 kts | 1° |
| 2026-05-05 20:57 | -36.25631 | -71.87185 | 42925 ft | 395 kts | 1° |
| 2026-05-05 20:57 | -36.20275 | -71.85609 | 42930 ft | 396 kts | 1° |
| 2026-05-05 20:58 | -36.14929 | -71.84036 | 42929 ft | 398 kts | 1° |
| 2026-05-05 20:58 | -36.09502 | -71.82440 | 42936 ft | 400 kts | 1° |
| 2026-05-05 20:59 | -36.04073 | -71.80847 | 42939 ft | 402 kts | 1° |
| 2026-05-05 20:59 | -35.98617 | -71.79248 | 42940 ft | 403 kts | 1° |
| 2026-05-05 21:00 | -35.93192 | -71.77660 | 42933 ft | 404 kts | 1° |
| 2026-05-05 21:00 | -35.87723 | -71.76062 | 42937 ft | 404 kts | 1° |
| 2026-05-05 21:01 | -35.82235 | -71.74462 | 42940 ft | 405 kts | 1° |
| 2026-05-05 21:01 | -35.76748 | -71.72863 | 42937 ft | 405 kts | 1° |
| 2026-05-05 21:02 | -35.71246 | -71.71261 | 42936 ft | 406 kts | 1° |
| 2026-05-05 21:02 | -35.65741 | -71.69663 | 42939 ft | 406 kts | 1° |
| 2026-05-05 21:03 | -35.60234 | -71.68065 | 42941 ft | 407 kts | 1° |
| 2026-05-05 21:03 | -35.54760 | -71.66478 | 42938 ft | 407 kts | 1° |
| 2026-05-05 21:04 | -35.49254 | -71.64886 | 42948 ft | 407 kts | 1° |
| 2026-05-05 21:04 | -35.43745 | -71.63295 | 42951 ft | 407 kts | 1° |
| 2026-05-05 21:05 | -35.38237 | -71.61703 | 42943 ft | 407 kts | 1° |
| 2026-05-05 21:05 | -35.32709 | -71.60108 | 42941 ft | 407 kts | 1° |
| 2026-05-05 21:06 | -35.27182 | -71.58516 | 42946 ft | 407 kts | 1° |
| 2026-05-05 21:06 | -35.21674 | -71.56933 | 42948 ft | 408 kts | 1° |
| 2026-05-05 21:07 | -35.16153 | -71.55347 | 42950 ft | 408 kts | 1° |
| 2026-05-05 21:07 | -35.10621 | -71.53760 | 42960 ft | 407 kts | 1° |
| 2026-05-05 21:08 | -35.05121 | -71.52183 | 42968 ft | 405 kts | 1° |
| 2026-05-05 21:08 | -34.99616 | -71.50613 | 42956 ft | 405 kts | 1° |
| 2026-05-05 21:09 | -34.94147 | -71.49050 | 42958 ft | 406 kts | 1° |
| 2026-05-05 21:09 | -34.88618 | -71.47475 | 42644 ft | 413 kts | 1° |
| 2026-05-05 21:10 | -34.85831 | -71.46684 | 42063 ft | 413 kts | 1° |
| 2026-05-05 21:10 | -34.83027 | -71.45880 | 41487 ft | 411 kts | 1° |
| 2026-05-05 21:10 | -34.80260 | -71.45088 | 40934 ft | 409 kts | 0° |
| 2026-05-05 21:10 | -34.77507 | -71.44307 | 40390 ft | 407 kts | 360° |
| 2026-05-05 21:11 | -34.74738 | -71.43523 | 39866 ft | 404 kts | 359° |
| 2026-05-05 21:11 | -34.72019 | -71.42750 | 39356 ft | 402 kts | 359° |
| 2026-05-05 21:11 | -34.69328 | -71.41985 | 38856 ft | 399 kts | 358° |
| 2026-05-05 21:11 | -34.66636 | -71.41211 | 38292 ft | 399 kts | 359° |
| 2026-05-05 21:12 | -34.63928 | -71.40187 | 37688 ft | 407 kts | 5° |
| 2026-05-05 21:12 | -34.61308 | -71.38925 | 37106 ft | 410 kts | 8° |
| 2026-05-05 21:12 | -34.58648 | -71.37603 | 36532 ft | 408 kts | 7° |
| 2026-05-05 21:12 | -34.56033 | -71.36326 | 35982 ft | 409 kts | 7° |
| 2026-05-05 21:13 | -34.53390 | -71.35038 | 35443 ft | 413 kts | 8° |
| 2026-05-05 21:13 | -34.50708 | -71.33716 | 34904 ft | 417 kts | 8° |
| 2026-05-05 21:13 | -34.48000 | -71.32373 | 34395 ft | 419 kts | 9° |
| 2026-05-05 21:13 | -34.45297 | -71.31046 | 33873 ft | 421 kts | 9° |
| 2026-05-05 21:14 | -34.42594 | -71.29719 | 33273 ft | 423 kts | 9° |
| 2026-05-05 21:14 | -34.39844 | -71.28374 | 32621 ft | 426 kts | 10° |
| 2026-05-05 21:14 | -34.37072 | -71.27012 | 31979 ft | 428 kts | 10° |
| 2026-05-05 21:14 | -34.34317 | -71.25660 | 31362 ft | 430 kts | 10° |
| 2026-05-05 21:15 | -34.31564 | -71.24311 | 30762 ft | 431 kts | 11° |
| 2026-05-05 21:15 | -34.28753 | -71.22936 | 30167 ft | 433 kts | 11° |
| 2026-05-05 21:15 | -34.25972 | -71.21579 | 29497 ft | 433 kts | 11° |
| 2026-05-05 21:15 | -34.23164 | -71.20200 | 28811 ft | 433 kts | 11° |
| 2026-05-05 21:16 | -34.20391 | -71.18847 | 28150 ft | 433 kts | 12° |
| 2026-05-05 21:16 | -34.17579 | -71.17476 | 27516 ft | 434 kts | 12° |
| 2026-05-05 21:16 | -34.14766 | -71.16107 | 26903 ft | 433 kts | 12° |
| 2026-05-05 21:16 | -34.11992 | -71.14748 | 26399 ft | 430 kts | 13° |
| 2026-05-05 21:17 | -34.09263 | -71.13420 | 25913 ft | 426 kts | 12° |
| 2026-05-05 21:17 | -34.06499 | -71.12075 | 25431 ft | 423 kts | 13° |
| 2026-05-05 21:17 | -34.03784 | -71.10757 | 24924 ft | 424 kts | 13° |
| 2026-05-05 21:17 | -34.01036 | -71.09428 | 24407 ft | 424 kts | 13° |
| 2026-05-05 21:18 | -33.98350 | -71.08113 | 23910 ft | 412 kts | 13° |
| 2026-05-05 21:18 | -33.95723 | -71.06830 | 23370 ft | 399 kts | 13° |
| 2026-05-05 21:18 | -33.93171 | -71.05597 | 22668 ft | 392 kts | 13° |
| 2026-05-05 21:18 | -33.90675 | -71.04395 | 22046 ft | 386 kts | 13° |
| 2026-05-05 21:19 | -33.88195 | -71.03194 | 21532 ft | 379 kts | 14° |
| 2026-05-05 21:19 | -33.85765 | -71.02011 | 21039 ft | 372 kts | 14° |
| 2026-05-05 21:19 | -33.83383 | -71.00862 | 20548 ft | 367 kts | 14° |
| 2026-05-05 21:19 | -33.81042 | -70.99731 | 20074 ft | 361 kts | 14° |
| 2026-05-05 21:20 | -33.78707 | -70.98600 | 19595 ft | 358 kts | 14° |
| 2026-05-05 21:20 | -33.76427 | -70.97502 | 19131 ft | 354 kts | 14° |
| 2026-05-05 21:20 | -33.74133 | -70.96395 | 18662 ft | 351 kts | 14° |
| 2026-05-05 21:20 | -33.71893 | -70.95316 | 18196 ft | 348 kts | 14° |
| 2026-05-05 21:21 | -33.69640 | -70.94227 | 17707 ft | 349 kts | 15° |
| 2026-05-05 21:21 | -33.67324 | -70.93127 | 17233 ft | 372 kts | 15° |
| 2026-05-05 21:21 | -33.64912 | -70.91959 | 16732 ft | 372 kts | 16° |
| 2026-05-05 21:21 | -33.62544 | -70.90808 | 16250 ft | 363 kts | 16° |
| 2026-05-05 21:22 | -33.60235 | -70.89690 | 15777 ft | 355 kts | 16° |
| 2026-05-05 21:22 | -33.57937 | -70.88595 | 15309 ft | 349 kts | 16° |
| 2026-05-05 21:22 | -33.55767 | -70.87362 | 14847 ft | 351 kts | 26° |
| 2026-05-05 21:22 | -33.53721 | -70.85804 | 14405 ft | 347 kts | 26° |
| 2026-05-05 21:23 | -33.51651 | -70.84292 | 13935 ft | 345 kts | 26° |
| 2026-05-05 21:23 | -33.49628 | -70.82817 | 13468 ft | 343 kts | 26° |
| 2026-05-05 21:23 | -33.47591 | -70.81317 | 13004 ft | 340 kts | 26° |
| 2026-05-05 21:23 | -33.45582 | -70.79838 | 12561 ft | 337 kts | 26° |
| 2026-05-05 21:24 | -33.43606 | -70.78384 | 12121 ft | 336 kts | 26° |
| 2026-05-05 21:24 | -33.41635 | -70.76940 | 11681 ft | 322 kts | 27° |
| 2026-05-05 21:24 | -33.39773 | -70.75563 | 11267 ft | 302 kts | 26° |
| 2026-05-05 21:24 | -33.38036 | -70.74295 | 10882 ft | 286 kts | 26° |
| 2026-05-05 21:25 | -33.36382 | -70.73085 | 10522 ft | 274 kts | 27° |
| 2026-05-05 21:25 | -33.34778 | -70.71909 | 10188 ft | 263 kts | 26° |
| 2026-05-05 21:25 | -33.33271 | -70.70807 | 9854 ft | 250 kts | 27° |
| 2026-05-05 21:25 | -33.31803 | -70.69749 | 9515 ft | 239 kts | 24° |
| 2026-05-05 21:26 | -33.30241 | -70.69227 | 9196 ft | 236 kts | 2° |
| 2026-05-05 21:26 | -33.28591 | -70.69333 | 8871 ft | 236 kts | 352° |
| 2026-05-05 21:26 | -33.26986 | -70.69531 | 8529 ft | 227 kts | 353° |
| 2026-05-05 21:26 | -33.25441 | -70.69728 | 8274 ft | 217 kts | 353° |
| 2026-05-05 21:27 | -33.23967 | -70.69906 | 7913 ft | 213 kts | 353° |
| 2026-05-05 21:27 | -33.22497 | -70.70083 | 7657 ft | 216 kts | 353° |
| 2026-05-05 21:27 | -33.20973 | -70.70268 | 7377 ft | 220 kts | 353° |
| 2026-05-05 21:27 | -33.19466 | -70.70450 | 7138 ft | 216 kts | 354° |
| 2026-05-05 21:28 | -33.17976 | -70.70635 | 6851 ft | 212 kts | 354° |
| 2026-05-05 21:28 | -33.16516 | -70.70783 | 6528 ft | 212 kts | 355° |
| 2026-05-05 21:28 | -33.15003 | -70.70935 | 6236 ft | 222 kts | 355° |
| 2026-05-05 21:28 | -33.13459 | -70.71084 | 6066 ft | 226 kts | 355° |
| 2026-05-05 21:29 | -33.11888 | -70.71230 | 6020 ft | 224 kts | 355° |
| 2026-05-05 21:29 | -33.10346 | -70.71436 | 6002 ft | 223 kts | 345° |
| 2026-05-05 21:29 | -33.09126 | -70.72539 | 5867 ft | 232 kts | 304° |
| 2026-05-05 21:29 | -33.08763 | -70.74445 | 5651 ft | 246 kts | 265° |
| 2026-05-05 21:30 | -33.09220 | -70.76460 | 5493 ft | 260 kts | 253° |
| 2026-05-05 21:30 | -33.09840 | -70.78503 | 5336 ft | 268 kts | 251° |
| 2026-05-05 21:30 | -33.10558 | -70.80589 | 5181 ft | 271 kts | 243° |
| 2026-05-05 21:30 | -33.11865 | -70.81999 | 5064 ft | 244 kts | 202° |
| 2026-05-05 21:31 | -33.13426 | -70.82084 | 5014 ft | 219 kts | 162° |
| 2026-05-05 21:31 | -33.14844 | -70.81667 | 4985 ft | 198 kts | 173° |
| 2026-05-05 21:31 | -33.16225 | -70.81480 | 4988 ft | 211 kts | 174° |
| 2026-05-05 21:31 | -33.17741 | -70.81381 | 4988 ft | 222 kts | 179° |
| 2026-05-05 21:32 | -33.19324 | -70.81315 | 4960 ft | 229 kts | 177° |
| 2026-05-05 21:32 | -33.20881 | -70.81233 | 4717 ft | 221 kts | 177° |
| 2026-05-05 21:32 | -33.22390 | -70.81153 | 4427 ft | 211 kts | 178° |
| 2026-05-05 21:32 | -33.23822 | -70.81077 | 4152 ft | 204 kts | 178° |
| 2026-05-05 21:33 | -33.25229 | -70.81002 | 3883 ft | 198 kts | 178° |
| 2026-05-05 21:33 | -33.26555 | -70.80930 | 3630 ft | 183 kts | 178° |
| 2026-05-05 21:33 | -33.27746 | -70.80865 | 3405 ft | 159 kts | 178° |
| 2026-05-05 21:33 | -33.28794 | -70.80810 | 3215 ft | 146 kts | 179° |
| 2026-05-05 21:34 | -33.29783 | -70.80754 | 3027 ft | 140 kts | 178° |
| 2026-05-05 21:34 | -33.30748 | -70.80713 | 2844 ft | 141 kts | 178° |
| 2026-05-05 21:34 | -33.31728 | -70.80662 | 2667 ft | 137 kts | 176° |
| 2026-05-05 21:34 | -33.32631 | -70.80618 | 2490 ft | 118 kts | 175° |
| 2026-05-05 21:35 | -33.33144 | -70.80591 | 2378 ft | 106 kts | 175° |
| 2026-05-05 21:35 | -33.34098 | -70.80540 | 2195 ft | 103 kts | 175° |
| 2026-05-05 21:35 | -33.34811 | -70.80502 | 2066 ft | 102 kts | 174° |
| 2026-05-05 21:35 | -33.35279 | -70.80479 | 1978 ft | 100 kts | 175° |
| 2026-05-05 21:36 | -33.35958 | -70.80444 | 1844 ft | 95 kts | 175° |
| 2026-05-05 21:36 | -33.36614 | -70.80407 | 1723 ft | 99 kts | 176° |
| 2026-05-05 21:36 | -33.37329 | -70.80369 | 1594 ft | 103 kts | 175° |
| 2026-05-05 21:36 | -33.37956 | -70.80335 | 1567 ft | 77 kts | 175° |
| 2026-05-05 21:37 | -33.38422 | -70.80308 | 1567 ft | 59 kts | 178° |
| 2026-05-05 21:37 | -33.38802 | -70.80288 | 1568 ft | 50 kts | 177° |
| 2026-05-05 21:37 | -33.39113 | -70.80270 | 1567 ft | 35 kts | 176° |
| 2026-05-05 21:37 | -33.39333 | -70.80198 | 1565 ft | 30 kts | 148° |
| 2026-05-05 21:38 | -33.39463 | -70.80100 | 1561 ft | 19 kts | 148° |
| 2026-05-05 21:38 | -33.39531 | -70.79973 | 1559 ft | 18 kts | 94° |
| 2026-05-05 21:38 | -33.39529 | -70.79845 | 1559 ft | 15 kts | 91° |
| 2026-05-05 21:38 | -33.39525 | -70.79794 | 1558 ft | 0 kts | 84° |
| 2026-05-05 21:39 | -33.39484 | -70.79780 | 1558 ft | 9 kts | 352° |
| 2026-05-05 21:39 | -33.39416 | -70.79786 | 1558 ft | 10 kts | 360° |
| 2026-05-05 21:39 | -33.39345 | -70.79770 | 1558 ft | 12 kts | 51° |
| 2026-05-05 21:39 | -33.39335 | -70.79668 | 1558 ft | 13 kts | 87° |
| 2026-05-05 21:40 | -33.39330 | -70.79537 | 1558 ft | 18 kts | 86° |
| 2026-05-05 21:40 | -33.39323 | -70.79394 | 1558 ft | 17 kts | 87° |
| 2026-05-05 21:40 | -33.39318 | -70.79267 | 1558 ft | 12 kts | 88° |
| 2026-05-05 21:40 | -33.39314 | -70.79178 | 1558 ft | 11 kts | 77° |
| 2026-05-05 21:41 | -33.39253 | -70.79144 | 1558 ft | 10 kts | 354° |
| 2026-05-05 21:41 | -33.39216 | -70.79158 | 1558 ft | 10 kts | 306° |
| 2026-05-05 21:41 | -33.39227 | -70.79199 | 1558 ft | 5 kts | 236° |
| 2026-05-05 21:41 | -33.39221 | -70.79207 | 1558 ft | 0 kts | 358° |